Accueil
METAR-TAF:

METAR-TAF

Aéroports :

Aéroport international de Honiara

Honiara, Guadalcanal, Iles Salomon

latitude: 09-25S, longitude: 160-03E, altitude: 8 m

Observation

Le bulletin a été fait il y a 48 minutes, à 23:00 UTC
Vent 6 kt de nord-est
Température 29°C
Humidité 79%
Pression 1010 hPa
Visibilité 10 km ou plus
Nuages épars à une hauteur de 1800 ft
brume sèche

METAR: AGGH 212300Z 05006KT 9999 HZ SCT018 29/25 Q1010

Heure: 10:48 (23:48 UTC)

Prévision

Le bulletin a été fait il y a 33 minutes, à 23:15 UTC
Prévision valable du 22 à 00 UTC au 22 à 24 UTC
Vent 10 kt de est/nord-est
Visibilité 10 km ou plus
Nuages épars à une hauteur de 1900 ft
Probabilité 30%
entre IN et TE UTC
Visibilité: 1009 m
Nuages fragmentés à une hauteur de 1500 ft
Quelques nuages à une hauteur de 1700 ft, Cumulonimbus.

TAF: AGGH 212315Z 2200/2224 07010KT 9999 SCT019 PROB30 INTER 2203/2206 9999 -TSSH BKN015 FEW017CB T 30 31 29 27 Q 1010 1008 1007 1009

Observations et prévisions météorologiques de plus de 4000 aéroports (messages METAR et TAF).

Les stations disponibles sont représentées par des disques jaunes et rouges sur la carte.

Passer la souris dessus pour voir le nom de la station.

Cliquer dessus pour voir les observations et prévisions météorologiques.

Pour changer de carte: cliquez sur les boutons verts avec une croix noire pour zoomer, sur le bouton vert avec un tiret pour effectuer un zoom arrière, ou sur les flèches vertes pour les cartes adjacentes.


METAR-TAF: